Emperor — D5KD5 — position and weather

sailwx.info

Track history (hours):
 
Tides and Currents Weather Stations Pressure Air Temp Water Temp Dewpoint Dewpoint Depression Visibility Wind Speed Wind Dir Waves Ship Positions

Emperor

Last reported at 2018-Apr-27 13:34 UTC. Time now 2018-Jun-24 12:52 UTC.
Position N 37°57' E 023°41'.
Warning: this ship's position is 57 days out of date.

Length 200 m; draft 10.2 m.

Type: Cargo ship. MMSI: 636017277.

Date/timePositionNaut miles runAvg speedWind from/ knotsBaromVisibWave heightAir tempDewpointWater temp
2018-Apr-27 13:34N 37°57' E 023°41'0 0.0
2018-Apr-27 13:27N 37°57' E 023°41'0 0.0
2018-Apr-27 10:57N 37°57' E 023°41'  
2018-Apr-24 11:39N 01°19' E 103°19'312.6
2018-Apr-24 11:23N 01°17' E 103°22'712.3
2018-Apr-24 10:50N 01°13' E 103°27'412.1
2018-Apr-24 10:30N 01°13' E 103°31'713.1
2018-Apr-24 10:00N 01°11' E 103°37'613.1
2018-Apr-24 09:30N 01°09' E 103°43'714.0
2018-Apr-24 08:59N 01°12' E 103°50'713.7
2018-Apr-24 08:30N 01°14' E 103°56'3 6.7
2018-Apr-24 07:59N 01°17' E 103°58'0 0.2
2018-Apr-24 07:20N 01°17' E 103°58'0 0.2
2018-Apr-24 06:59N 01°17' E 103°58'0 0.0
2018-Apr-24 06:26N 01°17' E 103°58'0 0.0
2018-Apr-24 05:47N 01°17' E 103°58'0 0.0
2018-Apr-24 05:22N 01°17' E 103°58'0 0.0
2018-Apr-24 04:59N 01°17' E 103°58'0 0.0
2018-Apr-24 04:17N 01°17' E 103°58'0 0.0
2018-Apr-24 03:58N 01°17' E 103°58'0 0.0
2018-Apr-24 03:23N 01°17' E 103°58'0 0.0
2018-Apr-24 02:55N 01°17' E 103°58'0 0.0
2018-Apr-24 02:23N 01°17' E 103°58'0 0.0
2018-Apr-24 01:53N 01°17' E 103°58'0 0.0
2018-Apr-24 01:29N 01°17' E 103°58'0 0.0
2018-Apr-24 00:59N 01°17' E 103°58'0 0.0
2018-Apr-24 00:29N 01°17' E 103°58'0 0.0
2018-Apr-23 23:59N 01°17' E 103°58'0 0.0
2018-Apr-23 23:30N 01°17' E 103°58'0 0.0
2018-Apr-23 22:59N 01°17' E 103°58'0 0.0
2018-Apr-23 22:24N 01°17' E 103°58'0 0.0
2018-Apr-23 21:52N 01°17' E 103°58'0 0.0
2018-Apr-23 21:28N 01°17' E 103°58'0 0.2
2018-Apr-23 20:57N 01°17' E 103°58'0 0.3
2018-Apr-23 20:30N 01°17' E 103°58'0 0.0
2018-Apr-23 19:58N 01°17' E 103°58'0 0.9
2018-Apr-23 19:30N 01°17' E 103°58'2 4.7
2018-Apr-23 18:59N 01°16' E 104°00'611.6
2018-Apr-23 18:29N 01°17' E 104°06'713.6
2018-Apr-23 17:58N 01°17' E 104°13'613.9
2018-Apr-23 17:30N 01°19' E 104°19'714.3
2018-Apr-23 16:59N 01°24' E 104°25'1412.0
2018-Apr-23 15:49N 01°34' E 104°34'  
2018-Apr-18 21:02N 22°13' E 118°57'112.9
2018-Apr-18 20:59N 22°14' E 118°58'613.0
2018-Apr-18 20:29N 22°19' E 119°02'1412.9
2018-Apr-18 19:22N 22°30' E 119°12'1212.6
2018-Apr-18 18:27N 22°39' E 119°20'1911.3
2018-Apr-18 16:45N 22°54' E 119°32'46 9.8
2018-Apr-18 12:04N 23°36' E 119°53'110.6
2018-Apr-18 11:59N 23°37' E 119°53'  
Track history (hours):
 
Tides and Currents Weather Stations Pressure Air Temp Water Temp Dewpoint Dewpoint Depression Visibility Wind Speed Wind Dir Waves Ship Positions

Emperor

Last reported at 2018-Apr-27 13:34 UTC. Time now 2018-Jun-24 12:52 UTC.
Position N 37°57' E 023°41'.
Warning: this ship's position is 57 days out of date.

Length 200 m; draft 10.2 m.

Type: Cargo ship. MMSI: 636017277.

Date/timePositionNaut miles runAvg speedWind from/ knotsBaromVisibWave heightAir tempDewpointWater temp
2018-Apr-27 13:34N 37°57' E 023°41'0 0.0
2018-Apr-27 13:27N 37°57' E 023°41'0 0.0
2018-Apr-27 10:57N 37°57' E 023°41'  
2018-Apr-24 11:39N 01°19' E 103°19'312.6
2018-Apr-24 11:23N 01°17' E 103°22'712.3
2018-Apr-24 10:50N 01°13' E 103°27'412.1
2018-Apr-24 10:30N 01°13' E 103°31'713.1
2018-Apr-24 10:00N 01°11' E 103°37'613.1
2018-Apr-24 09:30N 01°09' E 103°43'714.0
2018-Apr-24 08:59N 01°12' E 103°50'713.7
2018-Apr-24 08:30N 01°14' E 103°56'3 6.7
2018-Apr-24 07:59N 01°17' E 103°58'0 0.2
2018-Apr-24 07:20N 01°17' E 103°58'0 0.2
2018-Apr-24 06:59N 01°17' E 103°58'0 0.0
2018-Apr-24 06:26N 01°17' E 103°58'0 0.0
2018-Apr-24 05:47N 01°17' E 103°58'0 0.0
2018-Apr-24 05:22N 01°17' E 103°58'0 0.0
2018-Apr-24 04:59N 01°17' E 103°58'0 0.0
2018-Apr-24 04:17N 01°17' E 103°58'0 0.0
2018-Apr-24 03:58N 01°17' E 103°58'0 0.0
2018-Apr-24 03:23N 01°17' E 103°58'0 0.0
2018-Apr-24 02:55N 01°17' E 103°58'0 0.0
2018-Apr-24 02:23N 01°17' E 103°58'0 0.0
2018-Apr-24 01:53N 01°17' E 103°58'0 0.0
2018-Apr-24 01:29N 01°17' E 103°58'0 0.0
2018-Apr-24 00:59N 01°17' E 103°58'0 0.0
2018-Apr-24 00:29N 01°17' E 103°58'0 0.0
2018-Apr-23 23:59N 01°17' E 103°58'0 0.0
2018-Apr-23 23:30N 01°17' E 103°58'0 0.0
2018-Apr-23 22:59N 01°17' E 103°58'0 0.0
2018-Apr-23 22:24N 01°17' E 103°58'0 0.0
2018-Apr-23 21:52N 01°17' E 103°58'0 0.0
2018-Apr-23 21:28N 01°17' E 103°58'0 0.2
2018-Apr-23 20:57N 01°17' E 103°58'0 0.3
2018-Apr-23 20:30N 01°17' E 103°58'0 0.0
2018-Apr-23 19:58N 01°17' E 103°58'0 0.9
2018-Apr-23 19:30N 01°17' E 103°58'2 4.7
2018-Apr-23 18:59N 01°16' E 104°00'611.6
2018-Apr-23 18:29N 01°17' E 104°06'713.6
2018-Apr-23 17:58N 01°17' E 104°13'613.9
2018-Apr-23 17:30N 01°19' E 104°19'714.3
2018-Apr-23 16:59N 01°24' E 104°25'1412.0
2018-Apr-23 15:49N 01°34' E 104°34'  
2018-Apr-18 21:02N 22°13' E 118°57'112.9
2018-Apr-18 20:59N 22°14' E 118°58'613.0
2018-Apr-18 20:29N 22°19' E 119°02'1412.9
2018-Apr-18 19:22N 22°30' E 119°12'1212.6
2018-Apr-18 18:27N 22°39' E 119°20'1911.3
2018-Apr-18 16:45N 22°54' E 119°32'46 9.8
2018-Apr-18 12:04N 23°36' E 119°53'110.6
2018-Apr-18 11:59N 23°37' E 119°53'  

Dump ship's entire track history